Time;durP1;ratioP1;P1;durP2;ratioP2;P2;SDS_P1;SDS_P2;PMS_P1;PMS_P2;Temp;Humidity;BMP_temperature;BMP_pressure;BME280_temperature;BME280_humidity;BME280_pressure;Samples;Min_cycle;Max_cycle;Signal;HPM_P1;HPM_P2
2021/03/26 00:01:57;;;;;;;46.70;22.27;;;154.10;1664.00;;;;;;4943344;29;20028;-75
2021/03/26 00:04:23;;;;;;;38.95;20.08;;;154.30;1638.40;;;;;;4935124;29;20393;-75
2021/03/26 00:06:48;;;;;;;;;;;154.30;1638.40;;;;;;4927701;29;20541;-76
2021/03/26 00:09:21;;;;;;;102.78;44.83;;;154.30;1638.40;;;;;;4942274;29;19910;-75
2021/03/26 00:11:48;;;;;;;42.72;21.77;;;154.40;1587.20;;;;;;4985800;28;20041;-75
2021/03/26 00:14:14;;;;;;;40.33;21.20;;;154.30;1612.80;;;;;;5041488;28;20099;-75
2021/03/26 00:16:40;;;;;;;42.55;22.92;;;154.30;1612.80;;;;;;5041960;28;20067;-75
2021/03/26 00:19:07;;;;;;;47.33;22.20;;;154.30;1612.80;;;;;;5039505;28;20110;-76
2021/03/26 00:21:33;;;;;;;44.35;21.77;;;154.40;1612.80;;;;;;5038197;28;20420;-75
2021/03/26 00:23:59;;;;;;;49.65;24.23;;;154.30;1612.80;;;;;;5043692;28;20032;-75
2021/03/26 00:26:24;;;;;;;;;;;154.30;1612.80;;;;;;5189136;22;20049;-76
2021/03/26 00:28:50;;;;;;;49.97;25.98;;;154.30;1612.80;;;;;;5034113;28;20360;-74
2021/03/26 00:31:16;;;;;;;;;;;154.10;1612.80;;;;;;5043649;28;20068;-75
2021/03/26 00:33:42;;;;;;;90.80;37.33;;;154.10;1638.40;;;;;;5029041;28;19941;-75
2021/03/26 00:36:08;;;;;;;66.78;32.38;;;154.10;1664.00;;;;;;5032199;28;20049;-75
2021/03/26 00:38:34;;;;;;;;;;;154.10;1689.60;;;;;;5042698;28;20041;-75
2021/03/26 00:41:00;;;;;;;60.50;27.48;;;154.00;1664.00;;;;;;5040512;28;19905;-77
2021/03/26 00:43:26;;;;;;;64.15;29.63;;;153.80;1664.00;;;;;;5030628;28;20017;-75
2021/03/26 00:45:52;;;;;;;;;;;153.90;1664.00;;;;;;5031106;28;20032;-75
2021/03/26 00:48:19;;;;;;;84.50;39.33;;;154.00;1638.40;;;;;;5035694;28;19913;-74
2021/03/26 00:50:48;;;;;;;86.13;39.38;;;153.90;1638.40;;;;;;5044394;28;20017;-77
2021/03/26 00:53:19;;;;;;;90.38;39.80;;;153.90;1638.40;;;;;;5033867;28;20049;-76
2021/03/26 00:55:45;;;;;;;77.22;37.15;;;153.90;1664.00;;;;;;5041725;28;20435;-75
2021/03/26 00:58:12;;;;;;;92.93;36.67;;;153.80;1664.00;;;;;;5030526;28;20469;-76
2021/03/26 01:00:38;;;;;;;67.60;33.60;;;154.00;1612.80;;;;;;5012420;28;20042;-76
2021/03/26 01:03:05;;;;;;;97.53;46.60;;;154.10;1587.20;;;;;;5039525;28;20017;-80
2021/03/26 01:05:34;;;;;;;85.35;42.03;;;153.80;1638.40;;;;;;5044282;28;20074;-75
2021/03/26 01:08:00;;;;;;;85.15;40.58;;;153.60;1612.80;;;;;;5032499;28;20037;-75
2021/03/26 01:10:29;;;;;;;87.75;39.85;;;153.70;1587.20;;;;;;5030358;28;20049;-75
2021/03/26 01:12:55;;;;;;;81.60;38.33;;;153.80;1587.20;;;;;;5038128;28;20045;-75
2021/03/26 01:15:22;;;;;;;;;;;153.70;1587.20;;;;;;5044211;28;20021;-75
2021/03/26 01:17:50;;;;;;;64.20;29.90;;;153.70;1561.60;;;;;;5039048;28;19997;-76
2021/03/26 01:20:19;;;;;;;75.25;34.60;;;153.60;1587.20;;;;;;5036824;28;20037;-76
2021/03/26 01:22:44;;;;;;;70.55;35.13;;;153.70;1587.20;;;;;;5040200;28;20075;-78
2021/03/26 01:25:22;;;;;;;79.43;36.20;;;153.80;1612.80;;;;;;5037752;28;20104;-74
2021/03/26 01:27:48;;;;;;;80.28;38.20;;;153.60;1638.40;;;;;;5031535;28;20080;-76
2021/03/26 01:30:19;;;;;;;73.93;35.70;;;128.90;1612.80;;;;;;5034167;28;20057;-75
2021/03/26 01:32:45;;;;;;;76.68;36.78;;;128.80;1612.80;;;;;;5029733;28;20030;-79
2021/03/26 01:35:12;;;;;;;71.85;34.47;;;128.80;1612.80;;;;;;5021750;28;20026;-82
2021/03/26 01:37:38;;;;;;;76.43;39.30;;;128.80;1664.00;;;;;;5032711;28;20018;-84
2021/03/26 01:40:08;;;;;;;;;;;128.80;1638.40;;;;;;5032921;28;20120;-74
2021/03/26 01:42:37;;;;;;;76.72;36.58;;;128.70;1638.40;;;;;;5031938;28;20014;-76
2021/03/26 01:45:35;;;;;;;70.70;36.58;;;128.90;1612.80;;;;;;5032048;28;20100;-85
2021/03/26 01:48:02;;;;;;;76.90;37.10;;;153.70;1612.80;;;;;;5032513;28;20032;-84
2021/03/26 01:50:31;;;;;;;82.18;38.33;;;153.60;1587.20;;;;;;5031299;28;20033;-75
2021/03/26 01:52:56;;;;;;;79.57;39.80;;;153.70;1587.20;;;;;;5031398;28;20025;-80
2021/03/26 01:55:27;;;;;;;81.53;40.17;;;153.70;1587.20;;;;;;5031776;28;20101;-83
2021/03/26 01:57:53;;;;;;;76.00;39.15;;;153.80;1587.20;;;;;;5032171;28;20084;-83
2021/03/26 02:00:30;;;;;;;88.00;40.78;;;153.70;1587.20;;;;;;5035773;28;20489;-76
2021/03/26 02:03:01;;;;;;;87.00;40.50;;;153.70;1587.20;;;;;;5035390;28;20034;-75
2021/03/26 02:05:31;;;;;;;78.60;39.58;;;153.80;1587.20;;;;;;5035587;28;20017;-84
2021/03/26 02:07:57;;;;;;;100.57;48.05;;;153.80;1561.60;;;;;;5035428;28;20105;-80
2021/03/26 02:10:24;;;;;;;94.30;44.53;;;153.90;1561.60;;;;;;5035679;28;20088;-75
2021/03/26 02:12:57;;;;;;;100.88;47.83;;;153.90;1561.60;;;;;;5035583;28;20091;-75
2021/03/26 02:15:29;;;;;;;85.53;39.78;;;153.80;1587.20;;;;;;5035100;28;20079;-75
2021/03/26 02:17:55;;;;;;;99.82;46.08;;;153.60;1612.80;;;;;;5035797;28;20466;-76
2021/03/26 02:20:33;;;;;;;91.40;41.70;;;128.70;1638.40;;;;;;5042439;28;20025;-75
2021/03/26 02:23:15;;;;;;;91.10;42.78;;;128.60;1664.00;;;;;;5046976;28;20010;-74
2021/03/26 02:25:42;;;;;;;83.28;39.75;;;128.50;1689.60;;;;;;5047715;28;20128;-75
2021/03/26 02:28:08;;;;;;;81.28;42.17;;;128.50;1689.60;;;;;;5046325;28;20053;-75
2021/03/26 02:30:39;;;;;;;89.07;43.55;;;128.30;1715.20;;;;;;5047250;28;20385;-75
2021/03/26 02:33:05;;;;;;;87.20;44.38;;;128.30;1715.20;;;;;;5047231;28;20029;-74
2021/03/26 02:35:32;;;;;;;;;;;128.10;1689.60;;;;;;5046714;28;20014;-75
2021/03/26 02:38:02;;;;;;;;;;;103.00;1689.60;;;;;;5046374;28;19976;-74
2021/03/26 02:40:43;;;;;;;82.63;36.90;;;77.70;1792.00;;;;;;5045629;28;19897;-77
2021/03/26 02:43:16;;;;;;;83.28;38.13;;;77.40;1817.60;;;;;;5035407;28;20049;-75
2021/03/26 02:45:49;;;;;;;83.72;37.20;;;77.70;1817.60;;;;;;5034727;28;20025;-75
2021/03/26 02:48:27;;;;;;;72.13;35.45;;;77.50;1766.40;;;;;;5034943;28;20358;-74
2021/03/26 02:51:04;;;;;;;75.95;36.25;;;77.40;1740.80;;;;;;5036720;28;20028;-74
2021/03/26 02:53:48;;;;;;;81.72;37.47;;;77.70;1740.80;;;;;;5035320;28;20053;-76
2021/03/26 02:56:25;;;;;;;78.82;34.20;;;102.60;1740.80;;;;;;5032859;28;20033;-74
2021/03/26 02:59:20;;;;;;;79.38;36.38;;;77.30;1766.40;;;;;;5012817;28;20033;-74
2021/03/26 03:01:51;;;;;;;75.68;32.15;;;77.20;1766.40;;;;;;5017153;28;20094;-74
2021/03/26 03:04:41;;;;;;;72.53;34.75;;;77.00;1817.60;;;;;;5038133;28;20024;-75
2021/03/26 03:07:26;;;;;;;69.53;33.63;;;76.90;1817.60;;;;;;5035591;28;20017;-76
2021/03/26 03:09:58;;;;;;;63.17;32.65;;;77.10;1792.00;;;;;;5038210;28;20025;-81
2021/03/26 03:12:31;;;;;;;72.18;34.75;;;77.20;1792.00;;;;;;5036519;28;20048;-76
2021/03/26 03:15:22;;;;;;;70.43;33.92;;;77.50;1766.40;;;;;;5039229;28;20052;-76
2021/03/26 03:18:08;;;;;;;67.18;34.00;;;77.60;1766.40;;;;;;5038156;28;20026;-76
2021/03/26 03:20:37;;;;;;;70.93;32.40;;;77.60;1792.00;;;;;;5035399;28;20034;-76
2021/03/26 03:23:26;;;;;;;63.67;33.58;;;77.70;1766.40;;;;;;5023282;28;19998;-76
2021/03/26 03:25:56;;;;;;;72.80;32.90;;;77.70;1740.80;;;;;;5039628;28;20036;-76
2021/03/26 03:28:51;;;;;;;65.93;32.85;;;102.40;1740.80;;;;;;5021820;28;20025;-75
2021/03/26 03:31:35;;;;;;;73.18;34.28;;;102.50;1740.80;;;;;;5014604;28;20493;-76
2021/03/26 03:34:05;;;;;;;72.05;32.70;;;102.70;1715.20;;;;;;5034897;28;20048;-76
2021/03/26 03:36:48;;;;;;;66.78;33.13;;;102.80;1715.20;;;;;;5035739;28;20013;-76
2021/03/26 03:39:36;;;;;;;62.63;33.38;;;102.90;1689.60;;;;;;5036583;28;20493;-77
2021/03/26 03:42:10;;;;;;;65.60;33.22;;;102.90;1715.20;;;;;;5020295;28;20108;-76
2021/03/26 03:44:55;;;;;;;68.15;31.85;;;103.00;1689.60;;;;;;5032403;28;20064;-75
2021/03/26 03:47:35;;;;;;;70.22;33.92;;;103.00;1715.20;;;;;;5034101;28;20025;-76
2021/03/26 03:50:29;;;;;;;68.90;34.90;;;102.90;1689.60;;;;;;5038249;28;20025;-76
2021/03/26 03:53:07;;;;;;;71.28;34.50;;;102.90;1689.60;;;;;;5037200;28;20437;-74
2021/03/26 03:55:32;;;;;;;66.75;32.95;;;102.70;1740.80;;;;;;5035674;28;20385;-74
2021/03/26 03:58:02;;;;;;;68.55;33.80;;;102.80;1792.00;;;;;;5035411;28;20022;-75
2021/03/26 04:00:38;;;;;;;70.75;34.85;;;102.90;1715.20;;;;;;5039571;28;20034;-75
2021/03/26 04:03:19;;;;;;;63.42;28.40;;;103.00;1715.20;;;;;;5038980;28;20025;-75
2021/03/26 04:06:00;;;;;;;66.78;31.90;;;103.10;1689.60;;;;;;5035027;28;20022;-74
2021/03/26 04:08:43;;;;;;;60.63;30.90;;;103.20;1689.60;;;;;;5033980;28;20044;-75
2021/03/26 04:11:19;;;;;;;62.35;31.13;;;103.30;1689.60;;;;;;5030007;28;20064;-75
2021/03/26 04:13:50;;;;;;;71.82;34.95;;;128.00;1664.00;;;;;;5033779;28;20028;-75
2021/03/26 04:16:22;;;;;;;61.15;31.05;;;103.30;1664.00;;;;;;5018731;28;20026;-74
2021/03/26 04:18:58;;;;;;;67.95;35.60;;;128.00;1638.40;;;;;;5034976;28;20017;-74
2021/03/26 04:21:29;;;;;;;60.80;30.65;;;103.00;1689.60;;;;;;5033329;28;20029;-74
2021/03/26 04:24:02;;;;;;;66.30;31.95;;;102.50;1638.40;;;;;;5034620;28;20025;-75
2021/03/26 04:26:52;;;;;;;59.30;31.23;;;77.20;1715.20;;;;;;5033023;28;20551;-75
2021/03/26 04:29:52;;;;;;;68.50;30.02;;;76.80;1817.60;;;;;;5034674;28;20025;-75
2021/03/26 04:32:20;;;;;;;61.90;30.50;;;77.10;1792.00;;;;;;5019846;28;20033;-74
2021/03/26 04:34:46;;;;;;;65.38;31.55;;;77.30;1792.00;;;;;;5039295;28;20018;-75
2021/03/26 04:37:21;;;;;;;58.97;31.33;;;77.60;1766.40;;;;;;5036404;28;20025;-78
2021/03/26 04:39:56;;;;;;;64.22;30.83;;;77.60;1740.80;;;;;;5038546;28;20496;-75
2021/03/26 04:42:31;;;;;;;61.13;30.85;;;77.70;1740.80;;;;;;5037564;28;20021;-75
2021/03/26 04:45:06;;;;;;;68.75;33.25;;;77.70;1766.40;;;;;;5037706;28;20024;-75
2021/03/26 04:47:55;;;;;;;74.43;34.97;;;102.60;1740.80;;;;;;5029689;28;20025;-74
2021/03/26 04:50:27;;;;;;;79.80;35.35;;;102.80;1715.20;;;;;;5034855;28;20083;-74
2021/03/26 04:53:00;;;;;;;70.30;33.95;;;102.90;1689.60;;;;;;5032953;28;20017;-75
2021/03/26 04:55:34;;;;;;;90.90;36.38;;;103.00;1689.60;;;;;;5037319;28;20055;-75
2021/03/26 04:58:33;;;;;;;64.15;32.10;;;102.90;1715.20;;;;;;5036477;28;20382;-75
2021/03/26 05:01:13;;;;;;;63.50;32.90;;;102.90;1740.80;;;;;;4982614;28;20610;-74
2021/03/26 05:03:42;;;;;;;76.85;33.70;;;102.90;1740.80;;;;;;4983082;28;20050;-75
2021/03/26 05:06:21;;;;;;;90.93;39.97;;;103.00;1715.20;;;;;;4969615;28;20021;-75
2021/03/26 05:09:00;;;;;;;80.45;38.70;;;103.00;1740.80;;;;;;4968015;28;20072;-75
2021/03/26 05:11:30;;;;;;;75.05;37.95;;;103.00;1740.80;;;;;;4985145;28;20553;-75
2021/03/26 05:14:02;;;;;;;91.10;40.22;;;102.90;1792.00;;;;;;4981193;28;20049;-75
2021/03/26 05:16:34;;;;;;;83.63;40.10;;;103.00;1792.00;;;;;;4983160;28;20030;-75
2021/03/26 05:19:14;;;;;;;73.70;34.35;;;103.20;1792.00;;;;;;4982154;28;20045;-75
2021/03/26 05:22:03;;;;;;;73.22;33.75;;;103.20;1766.40;;;;;;4982844;28;20473;-74
2021/03/26 05:24:40;;;;;;;85.90;36.58;;;103.20;1766.40;;;;;;4981323;28;20067;-74
2021/03/26 05:27:10;;;;;;;84.65;39.72;;;128.10;1766.40;;;;;;4964282;28;20410;-74
2021/03/26 05:29:35;;;;;;;88.35;41.22;;;128.30;1740.80;;;;;;4983938;28;20053;-74
2021/03/26 05:32:27;;;;;;;80.88;37.88;;;128.30;1766.40;;;;;;4985128;28;20062;-74
2021/03/26 05:35:07;;;;;;;82.90;42.75;;;128.50;1740.80;;;;;;4972039;28;20475;-74
2021/03/26 05:37:41;;;;;;;93.25;46.50;;;128.50;1740.80;;;;;;5008526;28;20382;-74
2021/03/26 05:40:33;;;;;;;84.93;42.47;;;128.60;1740.80;;;;;;5033585;28;20507;-74
2021/03/26 05:43:13;;;;;;;64.50;31.10;;;128.70;1740.80;;;;;;5031975;28;20018;-74
2021/03/26 05:45:43;;;;;;;61.05;29.95;;;128.70;1740.80;;;;;;5031514;28;20022;-73
2021/03/26 05:48:40;;;;;;;58.35;30.80;;;128.90;1740.80;;;;;;5032529;28;20021;-74
2021/03/26 05:51:47;;;;;;;57.00;29.65;;;153.60;1740.80;;;;;;5018309;28;20037;-74
2021/03/26 05:54:42;;;;;;;59.55;30.35;;;153.80;1766.40;;;;;;4971897;28;20472;-74
2021/03/26 05:57:22;;;;;;;60.17;31.20;;;153.80;1766.40;;;;;;4955022;28;20109;-74
2021/03/26 05:59:50;;;;;;;63.25;31.77;;;154.00;1740.80;;;;;;4971303;28;20030;-74
2021/03/26 06:02:32;;;;;;;59.78;30.30;;;154.00;1740.80;;;;;;4969050;28;20019;-75
2021/03/26 06:05:23;;;;;;;67.95;29.58;;;154.10;1715.20;;;;;;4974909;28;20054;-76
2021/03/26 06:08:28;;;;;;;55.25;27.45;;;154.20;1715.20;;;;;;4955876;28;20459;-73
2021/03/26 06:10:59;;;;;;;50.45;27.17;;;154.40;1689.60;;;;;;4965753;28;20394;-74
2021/03/26 06:13:39;;;;;;;60.17;26.63;;;154.50;1664.00;;;;;;4970946;28;20031;-74
2021/03/26 06:16:23;;;;;;;51.58;27.05;;;154.50;1664.00;;;;;;4969436;28;20022;-75
2021/03/26 06:19:37;;;;;;;59.80;31.48;;;179.20;1664.00;;;;;;4969563;28;20109;-75
2021/03/26 06:22:33;;;;;;;64.55;31.38;;;179.40;1638.40;;;;;;4893597;29;20032;-81
2021/03/26 06:25:19;;;;;;;67.97;33.00;;;179.60;1587.20;;;;;;4893476;29;20116;-74
2021/03/26 06:28:04;;;;;;;62.38;32.30;;;179.70;1612.80;;;;;;4892143;29;20382;-73
2021/03/26 06:30:44;;;;;;;52.40;30.25;;;179.80;1612.80;;;;;;4922433;29;20622;-74
2021/03/26 06:34:03;;;;;;;63.78;33.95;;;179.90;1612.80;;;;;;4951233;29;20118;-77
2021/03/26 06:36:50;;;;;;;71.68;36.20;;;180.00;1561.60;;;;;;4932950;28;20106;-75
2021/03/26 06:40:06;;;;;;;85.25;43.20;;;204.80;1536.00;;;;;;4942937;28;20154;-75
2021/03/26 06:42:41;;;;;;;74.15;34.92;;;205.00;1536.00;;;;;;4874811;29;20426;-72
2021/03/26 06:45:38;;;;;;;71.65;32.22;;;205.20;1536.00;;;;;;4876756;29;20044;-74
2021/03/26 06:48:25;;;;;;;75.80;33.20;;;205.20;1510.40;;;;;;4878877;29;20090;-80
2021/03/26 06:51:17;;;;;;;62.30;29.42;;;205.40;1484.80;;;;;;4881463;29;20033;-76
2021/03/26 06:53:45;;;;;;;69.82;34.33;;;205.60;1484.80;;;;;;4946510;29;20036;-76
2021/03/26 06:56:40;;;;;;;79.28;36.08;;;230.40;1484.80;;;;;;4954348;29;20122;-85
2021/03/26 06:59:23;;;;;;;58.35;30.13;;;230.50;1561.60;;;;;;4896733;29;20036;-75
2021/03/26 07:02:25;;;;;;;57.20;28.73;;;230.70;1510.40;;;;;;4897099;29;20426;-79
2021/03/26 07:05:03;;;;;;;51.88;26.40;;;230.80;1484.80;;;;;;4896775;29;20042;-75
2021/03/26 07:07:50;;;;;;;44.85;24.13;;;230.90;1459.20;;;;;;4881528;29;20064;-74
2021/03/26 07:10:31;;;;;;;44.38;18.40;;;230.90;1510.40;;;;;;4896662;29;20119;-74
2021/03/26 07:13:29;;;;;;;87.28;35.47;;;256.20;1817.60;;;;;;4896613;29;20029;-74
2021/03/26 07:16:15;;;;;;;64.45;31.55;;;256.30;1408.00;;;;;;4786559;30;20047;-74
2021/03/26 07:18:44;;;;;;;69.57;23.58;;;256.50;1356.80;;;;;;4812620;29;20202;-75
2021/03/26 07:21:55;;;;;;;68.68;26.10;;;256.40;1382.40;;;;;;4822802;29;20153;-74
2021/03/26 07:24:38;;;;;;;38.65;19.80;;;256.50;1356.80;;;;;;4830299;29;20082;-75
2021/03/26 07:27:19;;;;;;;38.78;21.20;;;256.50;1305.60;;;;;;4840581;29;20524;-74
2021/03/26 07:30:07;;;;;;;41.40;21.33;;;256.70;1305.60;;;;;;4840575;29;20206;-75
2021/03/26 07:32:33;;;;;;;41.80;21.67;;;256.50;1382.40;;;;;;4840967;29;20030;-74
2021/03/26 07:35:16;;;;;;;;;;;256.50;1382.40;;;;;;4843443;29;20038;-75
2021/03/26 07:38:00;;;;;;;41.40;22.63;;;256.80;1331.20;;;;;;4896291;29;19921;-75
2021/03/26 07:40:38;;;;;;;47.40;21.70;;;256.70;1356.80;;;;;;4896349;29;20056;-74
2021/03/26 07:43:16;;;;;;;36.90;20.05;;;256.90;1331.20;;;;;;4896559;29;20119;-74
2021/03/26 07:46:07;;;;;;;40.63;22.92;;;256.80;1356.80;;;;;;4896309;29;20045;-74
2021/03/26 07:48:45;;;;;;;39.33;21.05;;;281.60;1356.80;;;;;;4895941;29;20040;-75
2021/03/26 07:51:25;;;;;;;43.03;21.23;;;256.80;1356.80;;;;;;4896112;29;20501;-74
2021/03/26 07:54:17;;;;;;;33.58;18.05;;;281.60;1356.80;;;;;;4932467;29;20458;-74
2021/03/26 07:57:14;;;;;;;38.95;20.65;;;281.80;1305.60;;;;;;4949181;28;20050;-73
2021/03/26 07:59:57;;;;;;;39.10;19.17;;;281.90;1331.20;;;;;;4964562;28;20512;-74
2021/03/26 08:02:49;;;;;;;90.00;22.70;;;282.10;1305.60;;;;;;5033305;28;20468;-75
2021/03/26 08:05:25;;;;;;;31.83;16.60;;;282.20;1254.40;;;;;;5033110;28;20112;-75
2021/03/26 08:07:54;;;;;;;31.48;16.42;;;282.30;1280.00;;;;;;5032932;28;20358;-74
2021/03/26 08:10:29;;;;;;;31.38;17.67;;;282.30;1254.40;;;;;;5033054;28;20041;-74
2021/03/26 08:13:12;;;;;;;23.08;12.77;;;282.50;1254.40;;;;;;5033153;28;20473;-74
2021/03/26 08:15:46;;;;;;;26.02;14.68;;;282.30;1126.40;;;;;;5032810;28;20104;-75
2021/03/26 08:18:23;;;;;;;28.77;14.82;;;282.40;1177.60;;;;;;5033072;28;20018;-74
2021/03/26 08:21:07;;;;;;;26.38;14.75;;;282.30;1126.40;;;;;;5032671;28;20034;-75
2021/03/26 08:23:51;;;;;;;30.77;15.90;;;282.50;1100.80;;;;;;5032666;28;20022;-74
2021/03/26 08:26:23;;;;;;;31.42;16.92;;;282.50;1152.00;;;;;;5032435;28;20112;-75
2021/03/26 08:28:57;;;;;;;28.75;15.32;;;307.30;1228.80;;;;;;5032774;28;20108;-75
2021/03/26 08:32:19;;;;;;;36.35;15.88;;;307.30;1152.00;;;;;;5032554;28;20056;-74
2021/03/26 08:35:00;;;;;;;29.35;15.80;;;307.30;1100.80;;;;;;4933091;29;20110;-73
2021/03/26 08:37:45;;;;;;;27.05;15.00;;;307.30;1228.80;;;;;;4932676;29;20448;-74
2021/03/26 08:40:17;;;;;;;27.90;14.63;;;307.30;1203.20;;;;;;4933240;29;20052;-74
2021/03/26 08:42:45;;;;;;;23.98;13.38;;;307.50;1100.80;;;;;;4933060;29;20035;-75
2021/03/26 08:45:11;;;;;;;27.85;14.32;;;307.50;1100.80;;;;;;4932989;29;20036;-74
2021/03/26 08:47:48;;;;;;;29.23;15.85;;;307.60;1228.80;;;;;;4933181;29;20389;-74
2021/03/26 08:50:38;;;;;;;29.73;15.63;;;307.60;1177.60;;;;;;4932859;29;20024;-72
2021/03/26 08:53:22;;;;;;;35.45;17.92;;;307.60;1075.20;;;;;;4929009;29;20200;-72
2021/03/26 08:56:01;;;;;;;27.70;14.77;;;307.70;1049.60;;;;;;4916605;29;20115;-72
2021/03/26 08:58:45;;;;;;;23.33;13.90;;;307.80;1049.60;;;;;;4921034;29;20035;-74
2021/03/26 09:01:54;;;;;;;22.48;13.38;;;307.90;1024.00;;;;;;4918753;29;20028;-72
2021/03/26 09:05:04;;;;;;;41.85;13.40;;;308.10;1100.80;;;;;;4919872;28;20038;-73
2021/03/26 09:07:48;;;;;;;19.33;12.65;;;308.00;1049.60;;;;;;5030497;28;20017;-73
2021/03/26 09:10:31;;;;;;;21.65;12.65;;;308.10;1049.60;;;;;;5031922;28;20112;-74
2021/03/26 09:13:06;;;;;;;34.92;14.18;;;308.10;998.40;;;;;;5032011;28;20473;-75
2021/03/26 09:15:43;;;;;;;26.30;14.38;;;308.10;998.40;;;;;;5031357;28;20036;-73
2021/03/26 09:18:32;;;;;;;22.77;13.75;;;332.80;972.80;;;;;;5030392;28;20028;-73
2021/03/26 09:21:21;;;;;;;29.05;14.90;;;332.80;972.80;;;;;;5031721;28;20033;-74
2021/03/26 09:24:12;;;;;;;24.58;16.08;;;333.00;947.20;;;;;;5031976;28;20026;-74
2021/03/26 09:26:59;;;;;;;27.90;14.23;;;333.20;998.40;;;;;;5031580;28;20088;-73
2021/03/26 09:29:34;;;;;;;31.23;17.67;;;333.30;1024.00;;;;;;5031779;28;20465;-74
2021/03/26 09:32:18;;;;;;;39.83;23.63;;;333.40;998.40;;;;;;5031638;28;20033;-78
2021/03/26 09:35:12;;;;;;;25.23;14.85;;;333.50;947.20;;;;;;5031618;28;20037;-74
2021/03/26 09:37:45;;;;;;;28.23;15.07;;;333.50;972.80;;;;;;5030925;28;20025;-73
2021/03/26 09:40:39;;;;;;;24.70;14.13;;;333.60;972.80;;;;;;5031392;28;20374;-74
2021/03/26 09:43:18;;;;;;;21.90;14.00;;;358.40;972.80;;;;;;5031386;28;20036;-73
2021/03/26 09:45:59;;;;;;;27.77;15.90;;;358.60;972.80;;;;;;5029703;28;20176;-75
2021/03/26 09:48:52;;;;;;;22.98;13.95;;;358.50;1024.00;;;;;;5029682;28;20101;-74
2021/03/26 09:51:50;;;;;;;24.48;13.98;;;358.70;921.60;;;;;;5020795;28;20535;-74
2021/03/26 09:54:51;;;;;;;21.75;12.52;;;358.80;947.20;;;;;;5027629;28;20049;-75
2021/03/26 09:57:20;;;;;;;22.50;13.73;;;359.00;921.60;;;;;;4966914;28;20063;-72
2021/03/26 10:00:25;;;;;;;23.80;14.73;;;359.20;896.00;;;;;;4969401;28;20093;-71
2021/03/26 10:03:00;;;;;;;26.98;13.50;;;359.20;947.20;;;;;;4910469;29;20047;-73
2021/03/26 10:05:40;;;;;;;28.08;15.05;;;359.20;896.00;;;;;;4911601;29;20059;-72
2021/03/26 10:08:40;;;;;;;29.17;14.15;;;384.20;896.00;;;;;;4912442;29;20135;-72
2021/03/26 10:11:25;;;;;;;36.13;15.18;;;384.30;896.00;;;;;;4876926;29;20130;-72
2021/03/26 10:13:55;;;;;;;40.22;14.60;;;384.70;921.60;;;;;;4910632;29;20049;-72
2021/03/26 10:17:01;;;;;;;26.30;13.75;;;384.70;844.80;;;;;;4911013;29;20046;-72
2021/03/26 10:19:43;;;;;;;23.40;14.27;;;384.90;870.40;;;;;;4904447;29;20433;-72
2021/03/26 10:22:22;;;;;;;31.00;17.90;;;409.90;870.40;;;;;;4903988;29;20058;-72
2021/03/26 10:25:01;;;;;;;30.88;18.58;;;409.90;844.80;;;;;;4915853;29;20465;-72
2021/03/26 10:27:32;;;;;;;28.02;13.07;;;410.00;844.80;;;;;;4916163;29;20052;-74
2021/03/26 10:30:10;;;;;;;24.05;14.82;;;409.90;921.60;;;;;;4909785;29;20036;-74
2021/03/26 10:32:36;;;;;;;21.65;13.30;;;410.30;819.20;;;;;;4928254;29;20055;-73
2021/03/26 10:35:17;;;;;;;23.67;14.55;;;410.00;870.40;;;;;;4945168;29;20028;-74
2021/03/26 10:38:03;;;;;;;26.95;14.55;;;410.20;844.80;;;;;;4944358;29;20098;-74
2021/03/26 10:40:50;;;;;;;19.45;13.07;;;410.30;793.60;;;;;;5042275;28;20029;-74
2021/03/26 10:44:02;;;;;;;30.30;14.88;;;410.00;896.00;;;;;;5037204;28;20020;-74
2021/03/26 10:46:36;;;;;;;21.05;12.52;;;435.20;819.20;;;;;;4944309;28;20492;-74
2021/03/26 10:49:14;;;;;;;52.92;16.95;;;410.20;844.80;;;;;;4944422;28;20028;-74
2021/03/26 10:51:43;;;;;;;22.58;14.38;;;435.30;844.80;;;;;;4944933;28;20044;-74
2021/03/26 10:54:11;;;;;;;24.75;15.48;;;435.60;844.80;;;;;;4942210;28;20163;-75
2021/03/26 10:57:02;;;;;;;24.52;16.17;;;435.80;793.60;;;;;;4935263;29;20058;-74
2021/03/26 10:59:36;;;;;;;24.25;15.77;;;436.00;768.00;;;;;;4941973;29;20039;-74
2021/03/26 11:02:24;;;;;;;25.13;15.63;;;436.10;768.00;;;;;;4944899;28;20023;-75
2021/03/26 11:04:59;;;;;;;28.60;15.85;;;;;;;;;;4936274;29;20027;-76
2021/03/26 11:07:30;;;;;;;23.58;14.73;;;461.00;768.00;;;;;;4952099;28;20046;-74
2021/03/26 11:10:01;;;;;;;25.10;15.40;;;461.10;768.00;;;;;;4962813;28;20036;-74
2021/03/26 11:12:42;;;;;;;22.83;14.23;;;461.20;768.00;;;;;;4962120;28;20067;-76
2021/03/26 11:15:12;;;;;;;22.80;14.43;;;461.10;768.00;;;;;;4961914;28;20023;-73
2021/03/26 11:17:41;;;;;;;22.80;15.60;;;461.10;793.60;;;;;;4961896;28;20113;-74
2021/03/26 11:20:22;;;;;;;23.33;15.65;;;461.20;742.40;;;;;;4959075;28;20531;-75
2021/03/26 11:23:26;;;;;;;21.40;13.98;;;461.40;742.40;;;;;;4990087;28;20067;-74
2021/03/26 11:25:54;;;;;;;24.42;15.85;;;461.40;742.40;;;;;;4971675;28;20030;-73
2021/03/26 11:28:25;;;;;;;30.23;14.63;;;461.60;742.40;;;;;;4955085;28;20129;-73
2021/03/26 11:31:12;;;;;;;29.13;15.77;;;461.40;691.20;;;;;;4971916;28;20046;-73
2021/03/26 11:33:47;;;;;;;27.05;15.13;;;;;;;;;;4972667;28;20039;-73
2021/03/26 11:36:37;;;;;;;35.17;15.70;;;486.50;716.80;;;;;;4973097;28;20118;-73
2021/03/26 11:39:29;;;;;;;23.73;13.73;;;486.60;691.20;;;;;;4908955;29;20045;-73
2021/03/26 11:42:53;;;;;;;29.08;14.70;;;486.40;691.20;;;;;;4896447;29;20489;-73
2021/03/26 11:45:31;;;;;;;31.88;14.90;;;461.70;716.80;;;;;;4877587;29;20505;-72
2021/03/26 11:48:09;;;;;;;22.27;13.60;;;486.50;716.80;;;;;;4877664;29;20110;-72
2021/03/26 11:50:58;;;;;;;19.05;12.35;;;461.70;716.80;;;;;;4861645;29;20502;-74
2021/03/26 11:53:34;;;;;;;21.60;14.25;;;486.60;691.20;;;;;;4876930;29;20076;-73
2021/03/26 11:56:23;;;;;;;24.55;13.32;;;486.40;716.80;;;;;;4876862;29;20458;-73
2021/03/26 11:59:10;;;;;;;21.85;13.40;;;486.70;691.20;;;;;;4877562;29;20037;-73
2021/03/26 12:01:53;;;;;;;21.17;14.73;;;486.70;691.20;;;;;;4895971;29;20489;-73
2021/03/26 12:04:25;;;;;;;20.67;13.90;;;486.40;716.80;;;;;;4899505;29;20062;-73
2021/03/26 12:06:57;;;;;;;20.55;14.73;;;486.50;716.80;;;;;;4902916;29;20036;-74
2021/03/26 12:09:57;;;;;;;23.80;14.13;;;486.70;691.20;;;;;;4903511;29;20133;-72
2021/03/26 12:12:48;;;;;;;18.73;13.10;;;487.00;691.20;;;;;;4884877;29;20095;-75
2021/03/26 12:15:23;;;;;;;18.67;13.45;;;486.80;691.20;;;;;;4893949;29;20031;-75
2021/03/26 12:18:06;;;;;;;24.50;15.20;;;487.00;716.80;;;;;;4938240;29;20034;-74
2021/03/26 12:20:42;;;;;;;20.42;12.77;;;487.00;716.80;;;;;;4954854;28;20185;-74
2021/03/26 12:23:50;;;;;;;24.25;14.18;;;486.80;665.60;;;;;;4952219;29;20039;-74
2021/03/26 12:26:34;;;;;;;22.90;14.88;;;487.00;665.60;;;;;;4947125;28;20547;-73
2021/03/26 12:29:18;;;;;;;33.13;19.58;;;486.80;691.20;;;;;;4951996;29;20129;-74
2021/03/26 12:31:58;;;;;;;25.13;15.77;;;486.60;742.40;;;;;;4952801;29;20042;-76
2021/03/26 12:34:51;;;;;;;24.15;16.48;;;486.60;691.20;;;;;;4936481;29;20028;-74
2021/03/26 12:37:33;;;;;;;23.63;13.95;;;486.80;716.80;;;;;;4952169;29;20246;-74
2021/03/26 12:40:19;;;;;;;24.27;14.15;;;486.80;716.80;;;;;;4951948;29;20031;-73
2021/03/26 12:42:51;;;;;;;22.80;14.75;;;487.10;691.20;;;;;;4951078;28;20058;-73
2021/03/26 12:45:31;;;;;;;21.73;14.00;;;486.90;691.20;;;;;;4951404;28;20031;-73
2021/03/26 12:48:19;;;;;;;20.70;13.73;;;486.70;716.80;;;;;;4951409;29;20117;-74
2021/03/26 12:50:51;;;;;;;19.20;11.98;;;486.70;742.40;;;;;;4951261;29;20070;-73
2021/03/26 12:53:47;;;;;;;19.27;12.02;;;486.80;665.60;;;;;;4951826;29;20583;-73
2021/03/26 12:56:51;;;;;;;19.55;13.45;;;486.80;665.60;;;;;;4967245;28;20041;-75
2021/03/26 12:59:18;;;;;;;20.35;12.32;;;486.70;691.20;;;;;;5031709;28;20044;-75
2021/03/26 13:01:57;;;;;;;25.17;13.55;;;486.80;691.20;;;;;;5032153;28;20112;-76
2021/03/26 13:05:07;;;;;;;22.38;13.32;;;486.70;716.80;;;;;;5032018;28;20044;-74
2021/03/26 13:07:42;;;;;;;23.38;13.02;;;486.90;665.60;;;;;;4971125;28;20553;-78